Time;durP1;ratioP1;P1;durP2;ratioP2;P2;SDS_P1;SDS_P2;PMS_P1;PMS_P2;Temp;Humidity;BMP_temperature;BMP_pressure;BME280_temperature;BME280_humidity;BME280_pressure;Samples;Min_cycle;Max_cycle;Signal;HPM_P1;HPM_P2
2022/04/06 00:02:12;;;;;;;0.40;0.40;;;;;;;9.34;100.00;98704.06;4880418;29;20250;-78
2022/04/06 00:04:39;;;;;;;0.40;0.40;;;;;;;9.35;100.00;98707.53;4874580;29;20711;-79
2022/04/06 00:07:06;;;;;;;0.83;0.50;;;;;;;9.35;100.00;98700.34;4879416;29;20778;-78
2022/04/06 00:09:37;;;;;;;0.37;0.37;;;;;;;9.36;100.00;98699.28;4881628;29;20239;-78
2022/04/06 00:12:04;;;;;;;1.17;0.53;;;;;;;9.39;100.00;98700.66;4879261;29;20330;-78
2022/04/06 00:14:31;;;;;;;0.53;0.40;;;;;;;9.42;100.00;98695.69;4880177;29;20235;-79
2022/04/06 00:17:03;;;;;;;0.47;0.47;;;;;;;9.44;100.00;98698.13;4880320;29;20247;-78
2022/04/06 00:19:35;;;;;;;0.50;0.40;;;;;;;9.46;100.00;98699.53;4878055;29;20235;-79
2022/04/06 00:22:03;;;;;;;0.40;0.40;;;;;;;9.46;100.00;98693.34;4878177;29;20670;-78
2022/04/06 00:24:30;;;;;;;0.40;0.40;;;;;;;9.47;100.00;98697.66;4878228;29;20239;-78
2022/04/06 00:26:57;;;;;;;0.47;0.30;;;;;;;9.49;100.00;98692.88;4877749;29;20330;-78
2022/04/06 00:29:24;;;;;;;0.60;0.47;;;;;;;9.45;100.00;98695.22;4878286;29;20232;-78
2022/04/06 00:31:51;;;;;;;0.50;0.50;;;;;;;9.44;100.00;98690.91;4884427;29;20231;-79
2022/04/06 00:34:17;;;;;;;0.50;0.47;;;;;;;9.44;100.00;98690.09;4880628;29;20322;-78
2022/04/06 00:36:44;;;;;;;1.07;0.60;;;;;;;9.40;100.00;98679.06;4886503;29;20238;-79
2022/04/06 00:39:12;;;;;;;0.40;0.40;;;;;;;9.40;100.00;98689.75;4881200;29;20620;-79
2022/04/06 00:41:39;;;;;;;0.50;0.40;;;;;;;9.41;100.00;98687.91;4885569;29;20235;-79
2022/04/06 00:44:16;;;;;;;0.40;0.40;;;;;;;9.38;100.00;98686.50;4882687;29;20254;-79
2022/04/06 00:46:45;;;;;;;0.50;0.40;;;;;;;9.44;100.00;98693.59;4885790;29;20234;-79
2022/04/06 00:49:14;;;;;;;0.57;0.50;;;;;;;9.46;100.00;98685.34;4878246;29;20294;-79
2022/04/06 00:51:47;;;;;;;0.63;0.60;;;;;;;9.45;100.00;98686.38;4888622;29;20247;-80
2022/04/06 00:54:15;;;;;;;0.57;0.57;;;;;;;9.53;100.00;98694.84;4888939;29;20241;-78
2022/04/06 00:56:45;;;;;;;0.50;0.50;;;;;;;9.50;100.00;98692.66;4885789;29;20239;-79
2022/04/06 00:59:12;;;;;;;0.40;0.40;;;;;;;9.49;100.00;98695.56;4889089;29;20243;-79
2022/04/06 01:01:39;;;;;;;0.30;0.30;;;;;;;9.54;100.00;98688.47;4885442;29;20227;-78
2022/04/06 01:04:06;;;;;;;0.50;0.40;;;;;;;9.53;100.00;98694.84;4891994;29;20334;-78
2022/04/06 01:06:33;;;;;;;0.60;0.40;;;;;;;9.54;100.00;98691.13;4879139;29;20315;-78
2022/04/06 01:09:00;;;;;;;0.40;0.40;;;;;;;9.57;100.00;98687.16;4877847;29;20235;-78
2022/04/06 01:11:27;;;;;;;0.30;0.30;;;;;;;9.57;100.00;98689.84;4876587;29;20321;-78
2022/04/06 01:13:54;;;;;;;0.50;0.30;;;;;;;9.57;100.00;98693.31;4875580;29;20630;-78
2022/04/06 01:16:21;;;;;;;0.47;0.30;;;;;;;9.56;100.00;98685.56;4879989;29;20239;-78
2022/04/06 01:18:48;;;;;;;1.27;0.30;;;;;;;9.55;100.00;98686.59;4878313;29;20228;-77
2022/04/06 01:21:15;;;;;;;0.30;0.30;;;;;;;9.57;100.00;98679.13;4880577;29;20595;-78
2022/04/06 01:23:42;;;;;;;0.50;0.30;;;;;;;9.58;100.00;98686.13;4871999;29;20248;-78
2022/04/06 01:26:10;;;;;;;0.23;0.20;;;;;;;9.60;100.00;98681.34;4877819;29;20293;-78
2022/04/06 01:28:37;;;;;;;0.30;0.23;;;;;;;9.59;100.00;98685.06;4878019;29;20231;-77
2022/04/06 01:31:04;;;;;;;0.23;0.20;;;;;;;9.55;100.00;98679.41;4877846;29;20235;-78
2022/04/06 01:33:31;;;;;;;0.47;0.27;;;;;;;9.54;100.00;98682.28;4878901;29;20232;-79
2022/04/06 01:35:59;;;;;;;0.30;0.30;;;;;;;9.50;100.00;98679.28;4878236;29;20287;-78
2022/04/06 01:38:26;;;;;;;0.30;0.30;;;;;;;9.47;100.00;98677.06;4877927;29;20235;-78
2022/04/06 01:40:54;;;;;;;0.40;0.40;;;;;;;9.45;100.00;98671.16;4878073;29;20303;-78
2022/04/06 01:43:21;;;;;;;2.30;0.50;;;;;;;9.44;100.00;98676.72;4877467;29;20787;-77
2022/04/06 01:45:48;;;;;;;0.53;0.53;;;;;;;9.45;100.00;98675.69;4877581;29;20238;-78
2022/04/06 01:48:16;;;;;;;0.63;0.53;;;;;;;9.44;100.00;98680.22;4878585;29;20235;-78
2022/04/06 01:53:30;;;;;;;0.60;0.60;;;;;;;9.42;100.00;98676.16;4881134;29;20239;-78
2022/04/06 01:55:57;;;;;;;0.63;0.60;;;;;;;9.40;100.00;98676.38;4880586;29;20286;-78
2022/04/06 01:58:24;;;;;;;0.53;0.53;;;;;;;9.41;100.00;98682.56;4880258;29;20319;-79
2022/04/06 02:00:52;;;;;;;0.60;0.57;;;;;;;9.35;100.00;98673.59;4880878;29;20238;-78
2022/04/06 02:03:19;;;;;;;0.60;0.60;;;;;;;9.32;100.00;98681.28;4879581;29;20227;-78
2022/04/06 02:05:46;;;;;;;0.70;0.63;;;;;;;9.30;100.00;98673.50;4880626;29;20239;-79
2022/04/06 02:08:13;;;;;;;0.60;0.60;;;;;;;9.29;100.00;98679.88;4880226;29;20231;-77
2022/04/06 02:10:39;;;;;;;0.60;0.60;;;;;;;9.26;100.00;98683.03;4880700;29;20341;-78
2022/04/06 02:13:06;;;;;;;0.70;0.70;;;;;;;9.27;100.00;98684.66;4880601;29;20585;-78
2022/04/06 02:15:33;;;;;;;0.57;0.57;;;;;;;9.25;100.00;98681.41;4880441;29;20712;-78
2022/04/06 02:18:00;;;;;;;0.80;0.70;;;;;;;9.23;100.00;98684.31;4878993;29;20261;-77
2022/04/06 02:20:27;;;;;;;2.47;0.87;;;;;;;9.17;100.00;98685.25;4880316;29;20322;-78
2022/04/06 02:22:54;;;;;;;1.27;1.00;;;;;;;9.17;100.00;98676.41;4880377;29;20241;-78
2022/04/06 02:25:21;;;;;;;0.97;0.80;;;;;;;9.14;100.00;98672.38;4880161;29;20231;-78
2022/04/06 02:27:49;;;;;;;0.87;0.87;;;;;;;9.12;100.00;98669.09;4880178;29;20239;-77
2022/04/06 02:30:18;;;;;;;1.33;0.87;;;;;;;9.07;100.00;98673.50;4879820;29;20286;-78
2022/04/06 02:32:45;;;;;;;1.03;0.87;;;;;;;9.03;100.00;98678.50;4878698;29;20234;-78
2022/04/06 02:35:12;;;;;;;2.67;1.00;;;;;;;9.03;100.00;98691.06;4878907;29;20247;-78
2022/04/06 02:37:41;;;;;;;1.20;1.07;;;;;;;8.97;100.00;98687.44;4879963;29;20238;-78
2022/04/06 02:40:10;;;;;;;1.10;1.00;;;;;;;8.91;100.00;98690.25;4879529;29;20319;-78
2022/04/06 02:42:37;;;;;;;1.23;1.10;;;;;;;8.86;100.00;98687.44;4879632;29;20231;-78
2022/04/06 02:45:04;;;;;;;1.00;0.90;;;;;;;8.80;100.00;98683.84;4880255;29;20623;-78
2022/04/06 02:47:30;;;;;;;1.30;1.20;;;;;;;8.74;100.00;98685.56;4874767;29;20231;-77
2022/04/06 02:49:57;;;;;;;1.17;1.00;;;;;;;8.72;100.00;98685.00;4878247;29;20239;-78
2022/04/06 02:52:23;;;;;;;1.67;1.13;;;;;;;8.75;100.00;98689.06;4878903;29;20251;-78
2022/04/06 02:54:52;;;;;;;1.63;1.27;;;;;;;8.65;100.00;98684.28;4878673;29;20653;-77
2022/04/06 02:57:19;;;;;;;1.83;1.40;;;;;;;8.55;100.00;98692.03;4879579;29;20680;-77
2022/04/06 02:59:45;;;;;;;2.27;1.30;;;;;;;8.52;100.00;98689.84;4878632;29;20318;-78
2022/04/06 03:02:12;;;;;;;1.40;1.30;;;;;;;8.36;100.00;98695.81;4879071;29;20237;-78
2022/04/06 03:04:39;;;;;;;2.70;2.50;;;;;;;8.24;100.00;98692.28;4874574;29;20314;-78
2022/04/06 03:07:06;;;;;;;3.30;2.77;;;;;;;8.15;100.00;98691.78;4879269;29;20246;-79
2022/04/06 03:09:32;;;;;;;2.90;2.70;;;;;;;8.13;100.00;98693.84;4882337;29;20231;-79
2022/04/06 03:11:59;;;;;;;2.23;2.03;;;;;;;8.13;100.00;98701.84;4879019;29;20235;-79
2022/04/06 03:14:26;;;;;;;1.90;1.80;;;;;;;8.09;100.00;98705.19;4879362;29;20231;-78
2022/04/06 03:16:52;;;;;;;1.77;1.67;;;;;;;7.99;100.00;98708.41;4879164;29;20235;-78
2022/04/06 03:19:19;;;;;;;1.90;1.80;;;;;;;7.91;100.00;98698.06;4879499;29;20243;-78
2022/04/06 03:21:46;;;;;;;1.60;1.50;;;;;;;7.88;100.00;98706.50;4879119;29;20242;-79
2022/04/06 03:24:13;;;;;;;1.70;1.60;;;;;;;7.85;100.00;98707.75;4879002;29;20231;-78
2022/04/06 03:26:39;;;;;;;1.40;1.30;;;;;;;7.81;100.00;98706.59;4878697;29;20235;-78
2022/04/06 03:29:06;;;;;;;1.70;1.50;;;;;;;7.74;100.00;98711.19;4879143;29;20771;-78
2022/04/06 03:31:33;;;;;;;2.20;1.50;;;;;;;7.73;100.00;98703.41;4879043;29;20273;-78
2022/04/06 03:34:00;;;;;;;1.90;1.40;;;;;;;7.64;100.00;98705.56;4879115;29;20401;-78
2022/04/06 03:36:27;;;;;;;1.40;1.30;;;;;;;7.58;100.00;98700.31;4878561;29;20239;-78
2022/04/06 03:38:54;;;;;;;1.53;1.43;;;;;;;7.50;100.00;98701.44;4877915;29;20231;-79
2022/04/06 03:41:20;;;;;;;4.57;1.40;;;;;;;7.47;100.00;98702.66;4878908;29;20231;-78
2022/04/06 03:43:47;;;;;;;2.03;1.27;;;;;;;7.42;100.00;98702.53;4878514;29;20314;-78
2022/04/06 03:46:14;;;;;;;2.83;1.30;;;;;;;7.40;100.00;98704.59;4875846;29;20236;-79
2022/04/06 03:48:42;;;;;;;2.10;1.03;;;;;;;7.32;100.00;98706.75;4876932;29;20243;-79
2022/04/06 03:51:09;;;;;;;1.40;1.10;;;;;;;7.20;100.00;98703.16;4878627;29;20247;-79
2022/04/06 03:53:36;;;;;;;1.30;1.20;;;;;;;7.14;100.00;98701.41;4873151;29;20247;-79
2022/04/06 03:56:03;;;;;;;3.13;1.13;;;;;;;7.06;100.00;98695.31;4886176;29;20234;-79
2022/04/06 03:58:30;;;;;;;1.20;1.10;;;;;;;6.98;100.00;98694.78;4878618;29;20231;-79
2022/04/06 04:00:57;;;;;;;2.03;1.33;;;;;;;6.87;100.00;98701.63;4881486;29;20662;-79
2022/04/06 04:03:23;;;;;;;2.20;1.40;;;;;;;6.76;100.00;98701.53;4878726;29;20231;-79
2022/04/06 04:05:51;;;;;;;1.27;1.10;;;;;;;6.65;100.00;98703.03;4878955;29;20318;-78
2022/04/06 04:08:17;;;;;;;1.50;1.30;;;;;;;6.55;100.00;98695.53;4878235;29;20242;-79
2022/04/06 04:10:44;;;;;;;2.03;1.33;;;;;;;6.46;100.00;98698.69;4878260;29;20235;-78
2022/04/06 04:13:12;;;;;;;1.43;1.30;;;;;;;6.38;100.00;98693.63;4878287;29;20741;-78
2022/04/06 04:15:39;;;;;;;1.60;1.20;;;;;;;6.33;100.00;98696.13;4878582;29;20334;-79
2022/04/06 04:18:05;;;;;;;1.87;1.47;;;;;;;6.28;100.00;98686.13;4877910;29;20259;-79
2022/04/06 04:20:32;;;;;;;2.70;1.23;;;;;;;6.26;100.00;98703.31;4878320;29;20231;-78
2022/04/06 04:22:59;;;;;;;2.33;1.40;;;;;;;6.21;100.00;98703.94;4878253;29;20612;-79
2022/04/06 04:25:26;;;;;;;1.67;1.20;;;;;;;6.17;100.00;98705.41;4878095;29;20331;-79
2022/04/06 04:27:52;;;;;;;1.77;1.13;;;;;;;6.22;100.00;98700.28;4883287;29;20758;-78
2022/04/06 04:30:21;;;;;;;1.53;1.20;;;;;;;6.13;100.00;98699.72;4877509;29;20679;-78
2022/04/06 04:32:48;;;;;;;2.50;1.50;;;;;;;6.04;100.00;98700.16;4878266;29;20300;-78
2022/04/06 04:35:15;;;;;;;2.63;1.70;;;;;;;5.94;100.00;98703.28;4878002;29;20231;-78
2022/04/06 04:37:42;;;;;;;2.77;1.53;;;;;;;5.95;100.00;98696.13;4878012;29;20726;-76
2022/04/06 04:40:09;;;;;;;1.80;1.50;;;;;;;5.98;100.00;98704.50;4877682;29;20695;-76
2022/04/06 04:42:36;;;;;;;1.60;1.40;;;;;;;5.99;100.00;98692.84;4877787;29;20242;-76
2022/04/06 04:45:04;;;;;;;1.73;1.60;;;;;;;6.00;100.00;98697.13;4875495;29;20788;-76
2022/04/06 04:47:30;;;;;;;2.37;1.70;;;;;;;6.03;100.00;98699.34;4877744;29;20262;-78
2022/04/06 04:49:57;;;;;;;3.03;2.20;;;;;;;6.06;100.00;98700.78;4875766;29;20236;-75
2022/04/06 04:52:24;;;;;;;2.23;1.80;;;;;;;6.14;100.00;98700.53;4877357;29;20239;-76
2022/04/06 04:54:51;;;;;;;2.23;1.70;;;;;;;6.27;100.00;98711.09;4878119;29;20700;-76
2022/04/06 04:57:18;;;;;;;2.00;1.80;;;;;;;6.43;100.00;98699.13;4869040;29;20251;-78
2022/04/06 04:59:45;;;;;;;2.97;1.77;;;;;;;6.57;100.00;98700.66;4877849;29;20302;-78
2022/04/06 05:02:11;;;;;;;2.03;1.37;;;;;;;6.75;100.00;98707.88;4877234;29;20231;-79
2022/04/06 05:04:38;;;;;;;1.57;1.30;;;;;;;6.81;100.00;98707.81;4878144;29;20745;-79
2022/04/06 05:07:05;;;;;;;5.93;1.70;;;;;;;6.86;100.00;98717.84;4877859;29;20266;-78
2022/04/06 05:09:31;;;;;;;2.10;1.50;;;;;;;6.92;100.00;98709.78;4877833;29;20315;-78
2022/04/06 05:11:58;;;;;;;1.70;1.33;;;;;;;6.97;100.00;98717.94;4877201;29;20246;-79
2022/04/06 05:14:27;;;;;;;2.27;1.50;;;;;;;7.09;100.00;98713.50;4875724;29;20235;-79
2022/04/06 05:16:53;;;;;;;2.07;1.30;;;;;;;7.21;100.00;98718.13;4877443;29;20231;-79
2022/04/06 05:19:20;;;;;;;2.67;1.50;;;;;;;7.32;100.00;98715.56;4875814;29;20260;-79
2022/04/06 05:21:47;;;;;;;2.70;1.50;;;;;;;7.48;100.00;98719.47;4883237;29;20608;-78
2022/04/06 05:24:14;;;;;;;2.03;1.20;;;;;;;7.59;100.00;98717.94;4888686;29;20239;-79
2022/04/06 05:26:41;;;;;;;1.93;1.13;;;;;;;7.74;100.00;98708.53;4878505;29;20273;-79
2022/04/06 05:29:08;;;;;;;2.47;1.20;;;;;;;7.90;100.00;98713.25;4878300;29;20246;-79
2022/04/06 05:31:35;;;;;;;2.33;1.20;;;;;;;8.04;100.00;98715.72;4881645;29;20244;-78
2022/04/06 05:34:02;;;;;;;1.33;1.20;;;;;;;8.25;100.00;98720.59;4889308;29;20237;-78
2022/04/06 05:36:29;;;;;;;1.17;1.07;;;;;;;8.45;100.00;98720.31;4880973;29;20244;-79
2022/04/06 05:38:56;;;;;;;3.03;1.10;;;;;;;8.69;100.00;98714.00;4881139;29;20617;-78
2022/04/06 05:41:23;;;;;;;1.50;1.03;;;;;;;8.85;100.00;98713.34;4879797;29;20294;-78
2022/04/06 05:43:50;;;;;;;1.00;0.90;;;;;;;9.05;100.00;98711.13;4880711;29;20249;-77
2022/04/06 05:46:17;;;;;;;1.30;1.10;;;;;;;9.23;100.00;98711.06;4875409;29;20286;-78
2022/04/06 05:48:43;;;;;;;1.37;1.00;;;;;;;9.45;100.00;98708.59;4877984;29;20243;-78
2022/04/06 05:51:10;;;;;;;1.60;1.00;;;;;;;9.65;100.00;98711.69;4880737;29;20235;-78
2022/04/06 05:53:37;;;;;;;1.70;1.07;;;;;;;9.79;100.00;98700.72;4880750;29;20634;-78
2022/04/06 05:56:04;;;;;;;1.17;1.00;;;;;;;9.99;100.00;98706.47;4885542;29;20244;-77
2022/04/06 05:58:31;;;;;;;1.53;0.93;;;;;;;10.19;100.00;98712.25;4880831;29;20299;-78
2022/04/06 06:00:58;;;;;;;3.27;0.97;;;;;;;10.32;100.00;98706.59;4880437;29;20247;-78
2022/04/06 06:03:25;;;;;;;1.10;1.00;;;;;;;10.47;100.00;98709.56;4880670;29;20235;-78
2022/04/06 06:05:53;;;;;;;1.10;0.90;;;;;;;10.66;100.00;98701.31;4880716;29;20647;-78
2022/04/06 06:08:20;;;;;;;0.83;0.73;;;;;;;10.78;100.00;98704.75;4880665;29;20318;-78
2022/04/06 06:10:47;;;;;;;1.70;0.90;;;;;;;10.91;100.00;98707.91;4881236;29;20250;-78
2022/04/06 06:13:13;;;;;;;1.73;1.00;;;;;;;11.13;100.00;98699.94;4881698;29;20245;-78
2022/04/06 06:15:40;;;;;;;1.70;1.00;;;;;;;11.32;100.00;98703.97;4883151;29;20593;-78
2022/04/06 06:18:08;;;;;;;1.40;1.20;;;;;;;11.47;100.00;98708.72;4892813;29;20235;-78
2022/04/06 06:20:35;;;;;;;0.90;0.90;;;;;;;11.70;100.00;98707.69;4884820;29;20242;-78
2022/04/06 06:23:02;;;;;;;4.57;2.43;;;;;;;11.92;100.00;98705.84;4876820;29;20314;-78
2022/04/06 06:25:30;;;;;;;2.97;2.20;;;;;;;12.16;100.00;98722.50;4881613;29;20263;-78
2022/04/06 06:27:57;;;;;;;2.00;1.70;;;;;;;12.36;100.00;98723.50;4880496;29;20254;-77
2022/04/06 06:30:26;;;;;;;5.33;1.90;;;;;;;12.59;100.00;98722.44;4879838;29;20334;-78
2022/04/06 06:32:54;;;;;;;2.37;1.23;;;;;;;12.84;100.00;98726.38;4880204;29;20233;-78
2022/04/06 06:35:21;;;;;;;2.33;1.40;;;;;;;13.08;100.00;98724.97;4879865;29;20293;-78
2022/04/06 06:37:50;;;;;;;1.73;1.43;;;;;;;13.38;100.00;98729.81;4879999;29;20295;-78
2022/04/06 06:40:18;;;;;;;2.33;1.33;;;;;;;13.57;100.00;98737.19;4878386;29;20262;-78
2022/04/06 06:42:45;;;;;;;3.47;1.40;;;;;;;13.70;100.00;98732.41;4879649;29;20243;-77
2022/04/06 06:45:12;;;;;;;2.17;1.70;;;;;;;13.82;100.00;98730.31;4880159;29;20270;-78
2022/04/06 06:47:42;;;;;;;3.90;1.90;;;;;;;14.01;100.00;98721.50;4879028;29;20315;-78
2022/04/06 06:50:10;;;;;;;2.90;2.03;;;;;;;14.28;100.00;98725.91;4877907;29;20264;-78
2022/04/06 06:52:37;;;;;;;2.13;1.63;;;;;;;14.33;100.00;98728.63;4885202;29;20274;-78
2022/04/06 06:55:11;;;;;;;2.83;1.60;;;;;;;14.40;100.00;98735.41;4887543;29;20658;-78
2022/04/06 06:57:37;;;;;;;2.80;1.57;;;;;;;14.36;99.64;98730.81;4879429;29;20244;-79
2022/04/06 07:00:05;;;;;;;2.33;1.47;;;;;;;14.53;98.21;98726.81;4887481;29;20236;-79
2022/04/06 07:02:32;;;;;;;2.60;1.30;;;;;;;14.76;92.34;98730.88;4880555;29;20232;-78
2022/04/06 07:04:59;;;;;;;2.77;1.20;;;;;;;14.85;90.01;98726.59;4881412;29;20249;-78
2022/04/06 07:07:25;;;;;;;2.50;1.07;;;;;;;14.88;86.74;98733.34;4880044;29;20248;-78
2022/04/06 07:09:52;;;;;;;0.90;0.80;;;;;;;15.01;86.06;98721.19;4882362;29;20233;-78
2022/04/06 07:12:19;;;;;;;1.37;0.80;;;;;;;15.21;83.38;98732.00;4876787;29;20269;-78
2022/04/06 07:14:45;;;;;;;2.97;0.90;;;;;;;15.26;83.95;98729.25;4889672;29;20250;-78
2022/04/06 07:17:12;;;;;;;2.30;0.90;;;;;;;15.38;83.87;98732.50;4881443;29;20288;-78
2022/04/06 07:19:41;;;;;;;1.03;1.00;;;;;;;15.55;81.03;98733.03;4886485;29;20249;-78
2022/04/06 07:22:07;;;;;;;1.53;0.90;;;;;;;15.64;76.91;98722.47;4877672;29;20233;-78
2022/04/06 07:24:34;;;;;;;1.30;1.20;;;;;;;15.74;78.05;98717.06;4878803;29;20234;-78
2022/04/06 07:27:02;;;;;;;1.53;1.43;;;;;;;15.78;77.84;98724.34;4883153;29;20237;-78
2022/04/06 07:29:28;;;;;;;1.53;1.40;;;;;;;15.96;77.38;98722.91;4880195;29;20265;-78
2022/04/06 07:31:55;;;;;;;1.83;1.60;;;;;;;16.21;75.69;98720.13;4882194;29;20750;-78
2022/04/06 07:34:21;;;;;;;3.67;2.20;;;;;;;16.62;74.76;98728.00;4879339;29;20292;-78
2022/04/06 07:36:48;;;;;;;1.60;1.50;;;;;;;16.98;72.54;98720.47;4878982;29;20310;-78
2022/04/06 07:39:15;;;;;;;2.70;2.00;;;;;;;17.32;70.65;98726.66;4873699;29;20236;-78
2022/04/06 07:41:42;;;;;;;1.87;1.70;;;;;;;17.62;67.70;98722.88;4878957;29;20246;-78
2022/04/06 07:44:08;;;;;;;1.93;1.70;;;;;;;17.73;65.07;98720.88;4877659;29;20254;-78
2022/04/06 07:46:35;;;;;;;1.40;1.30;;;;;;;17.86;63.59;98710.13;4878335;29;20236;-77
2022/04/06 07:49:02;;;;;;;1.97;1.50;;;;;;;18.12;61.58;98715.22;4874552;29;20318;-78
2022/04/06 07:51:29;;;;;;;1.97;1.10;;;;;;;18.47;60.27;98715.59;4878600;29;20318;-78
2022/04/06 07:53:56;;;;;;;2.53;0.97;;;;;;;18.49;58.76;98716.09;4875896;29;20243;-78
2022/04/06 07:56:22;;;;;;;1.87;1.20;;;;;;;18.82;56.50;98708.84;4878197;29;20239;-78
2022/04/06 07:58:49;;;;;;;2.50;1.13;;;;;;;18.96;56.64;98716.22;4880479;29;20686;-78
2022/04/06 08:01:16;;;;;;;1.87;1.00;;;;;;;19.23;53.62;98706.25;4879974;29;20237;-78
2022/04/06 08:03:43;;;;;;;1.47;0.60;;;;;;;19.38;52.27;98704.38;4878455;29;20244;-78
2022/04/06 08:06:09;;;;;;;1.10;0.70;;;;;;;19.36;51.64;98708.19;4877954;29;20245;-79
2022/04/06 08:08:36;;;;;;;1.10;0.60;;;;;;;19.60;49.33;98701.81;4878367;29;20242;-78
2022/04/06 08:11:05;;;;;;;5.10;3.23;;;;;;;19.88;46.95;98705.34;4878494;29;20250;-79
2022/04/06 08:13:32;;;;;;;1.67;1.47;;;;;;;20.13;44.71;98696.69;4877968;29;20726;-78
2022/04/06 08:15:59;;;;;;;1.97;1.10;;;;;;;20.13;43.88;98707.56;4875763;29;20779;-78
2022/04/06 08:18:26;;;;;;;0.33;0.30;;;;;;;20.36;42.33;98706.53;4877780;29;20254;-78
2022/04/06 08:20:53;;;;;;;2.20;0.80;;;;;;;20.37;41.68;98699.19;4878207;29;20267;-77
2022/04/06 08:23:21;;;;;;;0.70;0.70;;;;;;;20.39;41.06;98702.41;4878101;29;20256;-78
2022/04/06 08:25:49;;;;;;;0.60;0.47;;;;;;;20.53;41.81;98695.81;4878432;29;20250;-78
2022/04/06 08:28:16;;;;;;;1.07;0.60;;;;;;;20.62;41.86;98698.63;4877373;29;20309;-78
2022/04/06 08:30:43;;;;;;;1.30;0.60;;;;;;;20.80;41.29;98694.13;4878477;29;20243;-78
2022/04/06 08:33:11;;;;;;;0.70;0.50;;;;;;;20.78;41.46;98696.34;4877925;29;20246;-79
2022/04/06 08:35:38;;;;;;;0.50;0.50;;;;;;;21.04;40.63;98689.19;4878012;29;20249;-79
2022/04/06 08:38:06;;;;;;;1.87;0.90;;;;;;;21.22;40.34;98687.38;4877627;29;20246;-79
2022/04/06 08:40:35;;;;;;;2.03;1.10;;;;;;;21.24;39.48;98671.53;4875656;29;20267;-78
2022/04/06 08:43:03;;;;;;;1.00;0.40;;;;;;;21.27;39.60;98681.81;4875429;29;20260;-78
2022/04/06 08:45:32;;;;;;;1.27;0.40;;;;;;;21.11;39.68;98681.34;4877951;29;20599;-78
2022/04/06 08:47:59;;;;;;;0.30;0.30;;;;;;;21.05;39.70;98675.22;4874384;29;20237;-78
2022/04/06 08:50:29;;;;;;;0.53;0.20;;;;;;;21.01;38.64;98679.69;4876040;29;20280;-78
2022/04/06 08:52:57;;;;;;;1.77;0.30;;;;;;;21.10;38.60;98677.81;4876555;29;20613;-79
2022/04/06 08:55:28;;;;;;;0.63;0.20;;;;;;;21.03;38.88;98680.19;4877072;29;20252;-78
2022/04/06 08:57:59;;;;;;;0.20;0.20;;;;;;;21.07;38.16;98674.94;4881720;29;20237;-78
2022/04/06 09:00:26;;;;;;;1.07;0.30;;;;;;;20.95;38.16;98677.44;4881315;29;20241;-79
2022/04/06 09:02:53;;;;;;;0.50;0.20;;;;;;;21.01;37.38;98671.53;4876567;29;20325;-78
2022/04/06 09:05:21;;;;;;;0.73;0.20;;;;;;;20.98;37.61;98666.72;4881781;29;20277;-79
2022/04/06 09:07:51;;;;;;;0.93;0.40;;;;;;;20.93;38.09;98672.28;4880155;29;20263;-78
2022/04/06 09:10:37;;;;;;;2.27;0.30;;;;;;;20.69;38.74;98660.88;4882061;29;20253;-78
2022/04/06 09:13:11;;;;;;;0.30;0.20;;;;;;;20.80;38.85;98662.25;4895451;29;20249;-78
2022/04/06 09:15:38;;;;;;;0.97;0.30;;;;;;;20.95;38.04;98667.31;4893641;29;20231;-78
2022/04/06 09:18:05;;;;;;;0.40;0.30;;;;;;;20.96;38.68;98662.69;4892601;29;20295;-79
2022/04/06 09:20:32;;;;;;;1.67;0.30;;;;;;;20.87;38.59;98653.66;4890470;29;20249;-79
2022/04/06 09:23:03;;;;;;;1.03;0.40;;;;;;;21.13;37.63;98651.09;4889688;29;20242;-78
2022/04/06 09:25:37;;;;;;;0.67;0.50;;;;;;;21.17;37.38;98655.63;4889375;29;20253;-78
2022/04/06 09:28:12;;;;;;;0.60;0.60;;;;;;;21.24;37.31;98655.97;4880715;29;20233;-79
2022/04/06 09:30:41;;;;;;;0.73;0.40;;;;;;;21.08;36.79;98647.41;4881382;29;20278;-78
2022/04/06 09:33:21;;;;;;;0.33;0.30;;;;;;;21.08;36.55;98647.41;4881203;29;20616;-78
2022/04/06 09:35:49;;;;;;;0.30;0.30;;;;;;;21.31;35.68;98647.38;4881506;29;20293;-78
2022/04/06 09:38:19;;;;;;;1.37;0.40;;;;;;;21.32;36.21;98643.53;4881716;29;20248;-79
2022/04/06 09:40:46;;;;;;;0.20;0.20;;;;;;;21.34;36.55;98642.09;4887934;29;20234;-79
2022/04/06 09:43:27;;;;;;;0.30;0.30;;;;;;;21.29;36.35;98644.16;4886814;29;20246;-79
2022/04/06 09:48:55;;;;;;;0.20;0.20;;;;;;;20.75;36.63;98637.09;4875459;29;20246;-78
2022/04/06 09:51:22;;;;;;;0.47;0.20;;;;;;;20.56;37.55;98627.19;4880812;29;20238;-79
2022/04/06 09:53:51;;;;;;;0.87;0.50;;;;;;;20.44;37.49;98624.19;4879344;29;20270;-78
2022/04/06 09:56:18;;;;;;;0.77;0.33;;;;;;;20.23;38.56;98620.31;4880235;29;20347;-79
2022/04/06 09:58:46;;;;;;;1.60;0.30;;;;;;;20.09;37.72;98614.09;4880471;29;20234;-78
2022/04/06 10:01:14;;;;;;;0.50;0.50;;;;;;;19.93;37.99;98616.34;4880570;29;20246;-78
2022/04/06 10:03:48;;;;;;;0.37;0.20;;;;;;;19.87;37.84;98612.16;4880643;29;20265;-78
2022/04/06 10:06:15;;;;;;;0.33;0.33;;;;;;;19.92;37.90;98605.81;4880435;29;20266;-78
2022/04/06 10:08:43;;;;;;;0.57;0.23;;;;;;;19.90;37.52;98605.28;4879649;29;20617;-78
2022/04/06 10:11:10;;;;;;;0.20;0.20;;;;;;;19.94;38.98;98598.13;4880618;29;20233;-78
2022/04/06 10:13:39;;;;;;;1.33;0.23;;;;;;;19.92;37.38;98600.38;4878776;29;20237;-78
2022/04/06 10:16:20;;;;;;;1.83;0.30;;;;;;;19.93;38.50;98591.06;4879088;29;20249;-78
2022/04/06 10:18:48;;;;;;;1.80;0.20;;;;;;;20.01;39.11;98591.19;4879061;29;20332;-78
2022/04/06 10:21:36;;;;;;;1.13;0.20;;;;;;;20.11;38.23;98592.88;4878921;29;20241;-78
2022/04/06 10:24:39;;;;;;;0.40;0.30;;;;;;;20.29;37.82;98578.31;4878514;29;20245;-78
2022/04/06 10:27:17;;;;;;;0.30;0.30;;;;;;;20.54;37.63;98576.91;4879108;29;20229;-79
2022/04/06 10:30:10;;;;;;;1.30;0.30;;;;;;;20.87;38.24;98572.78;4878944;29;20234;-78
2022/04/06 10:32:42;;;;;;;0.60;0.60;;;;;;;21.15;36.57;98575.34;4879885;29;20697;-78
2022/04/06 10:35:18;;;;;;;0.90;0.70;;;;;;;21.17;36.64;98565.75;4880070;29;20318;-78
2022/04/06 10:38:16;;;;;;;0.73;0.73;;;;;;;21.30;36.45;98562.13;4879797;29;20235;-78
2022/04/06 10:40:43;;;;;;;1.03;0.87;;;;;;;20.93;36.59;98552.47;4869010;29;20321;-78
2022/04/06 10:43:35;;;;;;;1.37;0.90;;;;;;;20.95;38.03;98544.78;4879525;29;20329;-79
2022/04/06 10:46:08;;;;;;;1.53;0.60;;;;;;;21.06;35.55;98537.97;4879418;29;20366;-79
2022/04/06 10:48:56;;;;;;;0.60;0.60;;;;;;;20.99;36.29;98534.91;4879104;29;20237;-78
2022/04/06 10:51:28;;;;;;;1.00;0.90;;;;;;;20.84;36.08;98524.41;4879919;29;20730;-78
2022/04/06 10:53:55;;;;;;;1.20;0.87;;;;;;;20.79;36.01;98532.72;4879440;29;20250;-79
2022/04/06 10:56:22;;;;;;;1.37;1.27;;;;;;;20.67;37.34;98533.28;4879454;29;20245;-78
2022/04/06 10:58:55;;;;;;;2.83;1.17;;;;;;;20.70;36.82;98528.34;4878331;29;20253;-79
2022/04/06 11:01:32;;;;;;;1.00;0.90;;;;;;;20.81;37.19;98522.31;4879550;29;20591;-78
2022/04/06 11:04:08;;;;;;;1.50;1.40;;;;;;;20.94;36.93;98509.72;4879367;29;20612;-78
2022/04/06 11:06:44;;;;;;;1.50;1.40;;;;;;;20.96;37.01;98508.28;4879089;29;20257;-78
2022/04/06 11:12:31;;;;;;;1.60;1.50;;;;;;;21.11;37.13;98509.78;4878777;29;20233;-78
2022/04/06 11:15:01;;;;;;;1.77;1.60;;;;;;;21.13;36.75;98495.88;4878177;29;20240;-78
2022/04/06 11:17:42;;;;;;;1.73;1.57;;;;;;;21.14;37.61;98497.50;4873983;29;20278;-78
2022/04/06 11:20:15;;;;;;;3.40;2.10;;;;;;;21.20;37.23;98490.78;4877933;29;20320;-78
2022/04/06 11:22:53;;;;;;;2.17;1.97;;;;;;;21.30;37.14;98493.22;4878992;29;20247;-78
2022/04/06 11:25:25;;;;;;;1.90;1.80;;;;;;;21.32;36.93;98493.72;4878074;29;20321;-78
2022/04/06 11:27:55;;;;;;;2.70;2.33;;;;;;;21.24;36.68;98486.28;4877823;29;20248;-78
2022/04/06 11:30:23;;;;;;;2.87;2.53;;;;;;;21.37;37.05;98482.66;4878598;29;20251;-78
2022/04/06 11:32:53;;;;;;;2.90;2.60;;;;;;;21.33;36.77;98476.22;4878888;29;20238;-79
2022/04/06 11:35:27;;;;;;;3.10;2.77;;;;;;;21.31;37.15;98471.13;4878950;29;20300;-78
2022/04/06 11:37:54;;;;;;;3.60;2.60;;;;;;;21.35;37.97;98457.66;4878703;29;20252;-78
2022/04/06 11:40:29;;;;;;;3.10;2.73;;;;;;;21.39;36.88;98461.34;5088997;28;20585;-77
2022/04/06 11:43:02;;;;;;;3.43;2.80;;;;;;;21.40;36.88;98446.59;5068925;28;20227;-77
2022/04/06 11:45:30;;;;;;;4.47;2.50;;;;;;;21.47;37.00;98453.16;5068822;28;20245;-78
2022/04/06 11:47:58;;;;;;;2.70;2.50;;;;;;;21.62;36.65;98454.63;5064934;28;20243;-76